Time;durP1;ratioP1;P1;durP2;ratioP2;P2;SDS_P1;SDS_P2;PMS_P1;PMS_P2;Temp;Humidity;BMP_temperature;BMP_pressure;BME280_temperature;BME280_humidity;BME280_pressure;Samples;Min_cycle;Max_cycle;Signal;HPM_P1;HPM_P2
2023/05/15 00:02:21;;;;;;;5.20;4.80;;;19.60;38.90;;;;;;4934118;29;20188;-83
2023/05/15 00:04:48;;;;;;;4.80;4.40;;;19.70;39.00;;;;;;4937367;29;20178;-83
2023/05/15 00:07:13;;;;;;;4.60;4.25;;;19.70;38.90;;;;;;4937827;29;20162;-82
2023/05/15 00:09:43;;;;;;;5.40;4.90;;;19.70;38.90;;;;;;4922161;29;20241;-83
2023/05/15 00:12:10;;;;;;;5.00;4.60;;;19.70;38.90;;;;;;4941554;29;20185;-84
2023/05/15 00:14:35;;;;;;;4.80;4.40;;;19.70;38.90;;;;;;4992750;28;20172;-83
2023/05/15 00:17:01;;;;;;;5.13;4.72;;;19.70;38.90;;;;;;4963414;28;20295;-83
2023/05/15 00:19:27;;;;;;;5.45;4.97;;;19.70;38.90;;;;;;4963147;28;20673;-83
2023/05/15 00:21:54;;;;;;;5.10;4.70;;;19.70;38.90;;;;;;5012846;28;20173;-84
2023/05/15 00:24:20;;;;;;;5.20;4.80;;;19.70;38.90;;;;;;5058435;28;20667;-83
2023/05/15 00:26:46;;;;;;;4.97;4.57;;;19.70;39.00;;;;;;5041459;28;20158;-83
2023/05/15 00:29:13;;;;;;;5.13;4.72;;;19.60;39.00;;;;;;5058235;28;20172;-83
2023/05/15 00:31:39;;;;;;;5.30;4.90;;;19.70;39.00;;;;;;5108241;27;20178;-83
2023/05/15 00:34:04;;;;;;;5.30;4.90;;;19.70;39.00;;;;;;5103299;27;20151;-82
2023/05/15 00:36:30;;;;;;;5.20;4.80;;;19.70;39.00;;;;;;5102593;27;20166;-83
2023/05/15 00:38:56;;;;;;;5.47;4.97;;;19.70;39.10;;;;;;5103137;27;20603;-83
2023/05/15 00:41:22;;;;;;;5.13;4.63;;;19.60;39.00;;;;;;5119453;27;20190;-83
2023/05/15 00:43:49;;;;;;;5.53;5.13;;;19.70;39.10;;;;;;5119660;27;20232;-82
2023/05/15 00:46:14;;;;;;;5.10;4.70;;;19.60;39.10;;;;;;5119580;27;20148;-82
2023/05/15 00:48:40;;;;;;;5.10;4.70;;;19.70;39.10;;;;;;5119431;27;20166;-84
2023/05/15 00:51:06;;;;;;;5.32;4.82;;;19.70;39.10;;;;;;5102306;27;20521;-84
2023/05/15 00:53:31;;;;;;;5.60;5.10;;;19.60;39.10;;;;;;5137794;27;20162;-84
2023/05/15 00:55:58;;;;;;;4.97;4.57;;;19.60;39.10;;;;;;5119477;27;20180;-83
2023/05/15 00:58:27;;;;;;;4.93;4.53;;;19.60;39.10;;;;;;5119438;27;20155;-83
2023/05/15 01:00:53;;;;;;;5.60;5.10;;;19.70;39.10;;;;;;5102560;27;20705;-82
2023/05/15 01:03:18;;;;;;;5.40;4.90;;;19.60;39.10;;;;;;5119336;27;20155;-83
2023/05/15 01:05:44;;;;;;;5.43;4.93;;;19.60;39.10;;;;;;5119356;27;20158;-83
2023/05/15 01:08:25;;;;;;;5.22;4.70;;;19.70;39.20;;;;;;5102636;27;20152;-83
2023/05/15 01:10:51;;;;;;;5.70;5.20;;;19.60;39.10;;;;;;5119268;27;20254;-83
2023/05/15 01:13:19;;;;;;;5.43;5.03;;;19.50;39.10;;;;;;5102451;27;20187;-83
2023/05/15 01:15:44;;;;;;;5.38;4.88;;;19.60;39.20;;;;;;5101373;27;20163;-83
2023/05/15 01:18:10;;;;;;;5.18;4.75;;;19.60;39.20;;;;;;5098121;28;20754;-84
2023/05/15 01:20:57;;;;;;;5.53;5.10;;;19.60;39.20;;;;;;5115254;28;20191;-83
2023/05/15 01:23:34;;;;;;;5.13;4.72;;;19.60;39.20;;;;;;5115447;28;20160;-82
2023/05/15 01:26:37;;;;;;;5.20;4.80;;;19.60;39.30;;;;;;5099350;28;20163;-83
2023/05/15 01:29:08;;;;;;;5.25;4.85;;;19.60;39.30;;;;;;5101258;28;20246;-83
2023/05/15 01:31:41;;;;;;;5.30;4.85;;;19.60;39.40;;;;;;5098487;28;20571;-84
2023/05/15 01:34:07;;;;;;;5.10;4.70;;;19.60;39.30;;;;;;5116280;28;20153;-83
2023/05/15 01:36:36;;;;;;;5.45;5.05;;;19.50;39.30;;;;;;5115186;28;20204;-83
2023/05/15 01:39:03;;;;;;;5.43;5.03;;;19.60;39.30;;;;;;5098831;28;20233;-84
2023/05/15 01:41:34;;;;;;;5.25;4.82;;;19.60;39.30;;;;;;5081157;28;20513;-83
2023/05/15 01:44:13;;;;;;;5.55;5.07;;;19.60;39.30;;;;;;5099050;28;20152;-83
2023/05/15 01:46:42;;;;;;;5.28;4.88;;;19.50;39.20;;;;;;5082489;28;20167;-83
2023/05/15 01:49:08;;;;;;;5.90;5.40;;;19.60;39.40;;;;;;5116432;27;20152;-83
2023/05/15 01:51:34;;;;;;;5.95;5.45;;;19.60;39.40;;;;;;5098282;28;20620;-83
2023/05/15 01:54:01;;;;;;;5.10;4.70;;;19.60;39.40;;;;;;5098275;28;20172;-83
2023/05/15 01:56:26;;;;;;;5.30;4.90;;;19.60;39.40;;;;;;5115055;28;20153;-83
2023/05/15 01:58:52;;;;;;;5.13;4.72;;;19.60;39.40;;;;;;5114675;28;20156;-82
2023/05/15 02:01:18;;;;;;;5.78;5.28;;;19.60;39.40;;;;;;5097980;28;20592;-83
2023/05/15 02:03:44;;;;;;;5.28;4.88;;;19.50;39.40;;;;;;5115696;28;20180;-83
2023/05/15 02:06:10;;;;;;;5.50;5.00;;;19.50;39.40;;;;;;5098305;28;20660;-83
2023/05/15 02:08:36;;;;;;;5.20;4.80;;;19.50;39.50;;;;;;5114819;28;20239;-83
2023/05/15 02:11:02;;;;;;;5.60;5.10;;;19.50;39.40;;;;;;5114561;28;20677;-83
2023/05/15 02:13:27;;;;;;;5.20;4.80;;;19.60;39.50;;;;;;5115993;28;20554;-83
2023/05/15 02:15:53;;;;;;;5.70;5.20;;;19.50;39.40;;;;;;5097551;28;20160;-82
2023/05/15 02:18:19;;;;;;;5.40;5.00;;;19.60;39.50;;;;;;5077308;28;20224;-82
2023/05/15 02:20:45;;;;;;;5.72;5.22;;;19.50;39.50;;;;;;5076759;28;20234;-82
2023/05/15 02:23:11;;;;;;;5.47;5.05;;;19.50;39.50;;;;;;5076818;28;20161;-82
2023/05/15 02:26:02;;;;;;;5.30;4.90;;;19.50;39.60;;;;;;5093674;28;20149;-82
2023/05/15 02:28:30;;;;;;;5.70;5.20;;;19.50;39.60;;;;;;5095299;28;20251;-82
2023/05/15 02:31:00;;;;;;;5.43;4.93;;;19.50;39.60;;;;;;5093955;28;20157;-83
2023/05/15 02:33:41;;;;;;;5.03;4.63;;;19.40;39.60;;;;;;5077139;28;20156;-83
2023/05/15 02:36:08;;;;;;;5.25;4.85;;;19.40;39.50;;;;;;5061896;28;20161;-82
2023/05/15 02:38:40;;;;;;;5.35;4.95;;;19.50;39.70;;;;;;5060584;28;20168;-82
2023/05/15 02:41:05;;;;;;;5.30;4.85;;;19.40;39.70;;;;;;5093404;28;20562;-82
2023/05/15 02:43:31;;;;;;;5.20;4.80;;;19.50;39.70;;;;;;5093668;28;20160;-82
2023/05/15 02:45:57;;;;;;;5.50;5.10;;;19.50;39.60;;;;;;5077158;28;20163;-82
2023/05/15 02:48:22;;;;;;;5.70;5.20;;;19.50;39.70;;;;;;5076505;28;20164;-82
2023/05/15 02:50:48;;;;;;;5.97;5.47;;;19.50;39.70;;;;;;5060464;28;20218;-82
2023/05/15 02:53:15;;;;;;;6.30;5.80;;;19.40;39.80;;;;;;5059705;28;20200;-82
2023/05/15 02:55:40;;;;;;;6.00;5.50;;;19.40;39.80;;;;;;5059918;28;20165;-82
2023/05/15 02:58:06;;;;;;;6.53;5.97;;;19.40;39.80;;;;;;5093471;28;20163;-82
2023/05/15 03:00:32;;;;;;;5.70;5.20;;;19.40;39.70;;;;;;5093158;28;20203;-82
2023/05/15 03:02:58;;;;;;;5.78;5.28;;;19.50;40.50;;;;;;5060029;28;20532;-82
2023/05/15 03:05:25;;;;;;;5.80;5.30;;;19.40;39.90;;;;;;5094282;28;20157;-82
2023/05/15 03:07:51;;;;;;;5.38;4.97;;;19.40;39.90;;;;;;5076761;28;20157;-82
2023/05/15 03:10:22;;;;;;;5.80;5.30;;;19.50;39.90;;;;;;5093238;28;20167;-82
2023/05/15 03:12:48;;;;;;;5.60;5.20;;;19.50;40.00;;;;;;5092988;28;20149;-82
2023/05/15 03:15:14;;;;;;;5.43;4.95;;;19.40;39.90;;;;;;5094168;28;20155;-82
2023/05/15 03:17:39;;;;;;;5.68;5.10;;;19.50;40.00;;;;;;5080845;27;20168;-82
2023/05/15 03:20:07;;;;;;;5.60;5.10;;;19.50;40.00;;;;;;5116776;27;20225;-82
2023/05/15 03:22:33;;;;;;;5.70;5.20;;;19.50;40.00;;;;;;5100126;27;20179;-82
2023/05/15 03:25:00;;;;;;;5.97;5.40;;;19.50;39.90;;;;;;5099665;27;20186;-83
2023/05/15 03:27:27;;;;;;;5.53;5.10;;;19.40;40.60;;;;;;5099917;27;20194;-82
2023/05/15 03:29:52;;;;;;;5.85;5.25;;;19.50;40.00;;;;;;5116483;27;20205;-83
2023/05/15 03:32:29;;;;;;;5.50;5.10;;;19.50;40.00;;;;;;5100738;27;20229;-82
2023/05/15 03:34:55;;;;;;;5.95;5.45;;;19.40;40.70;;;;;;5118873;27;20151;-82
2023/05/15 03:37:20;;;;;;;5.68;5.20;;;19.40;40.00;;;;;;5136984;27;20192;-82
2023/05/15 03:39:48;;;;;;;5.95;5.45;;;19.40;40.00;;;;;;5117780;27;20606;-82
2023/05/15 03:42:22;;;;;;;5.68;5.18;;;19.40;40.00;;;;;;5102745;28;20610;-82
2023/05/15 03:44:55;;;;;;;5.90;5.38;;;19.40;40.00;;;;;;5077510;28;20221;-83
2023/05/15 03:47:25;;;;;;;5.80;5.40;;;19.40;40.00;;;;;;5060925;28;20195;-82
2023/05/15 03:49:50;;;;;;;5.78;5.28;;;19.40;40.10;;;;;;5094657;28;20193;-82
2023/05/15 03:52:18;;;;;;;6.03;5.53;;;19.40;40.10;;;;;;5062112;28;20200;-82
2023/05/15 03:54:46;;;;;;;5.55;5.15;;;19.40;40.10;;;;;;5061537;28;20203;-82
2023/05/15 03:57:12;;;;;;;5.60;5.10;;;19.40;40.10;;;;;;5061724;28;20188;-82
2023/05/15 03:59:38;;;;;;;5.40;5.00;;;19.40;40.10;;;;;;5077904;28;20554;-82
2023/05/15 04:02:05;;;;;;;5.60;5.10;;;19.40;40.10;;;;;;5092031;28;20207;-82
2023/05/15 04:04:30;;;;;;;5.68;5.18;;;19.40;40.10;;;;;;5058400;28;20247;-83
2023/05/15 04:06:56;;;;;;;5.53;5.07;;;19.40;40.10;;;;;;5075120;28;20161;-82
2023/05/15 04:09:22;;;;;;;5.82;5.32;;;19.40;40.10;;;;;;5058961;28;20249;-82
2023/05/15 04:11:48;;;;;;;5.38;4.97;;;19.40;40.10;;;;;;5057943;28;20161;-83
2023/05/15 04:14:14;;;;;;;5.50;5.00;;;19.40;40.10;;;;;;5075169;28;20611;-83
2023/05/15 04:16:40;;;;;;;5.88;5.30;;;19.40;40.10;;;;;;5092080;28;20205;-83
2023/05/15 04:19:05;;;;;;;5.70;5.20;;;19.40;40.10;;;;;;5074583;28;20311;-82
2023/05/15 04:21:32;;;;;;;5.53;5.13;;;19.40;40.00;;;;;;5080976;28;20172;-83
2023/05/15 04:23:58;;;;;;;5.32;4.93;;;19.40;40.10;;;;;;5113451;28;20161;-83
2023/05/15 04:26:30;;;;;;;5.43;5.00;;;19.40;40.10;;;;;;5113290;28;20739;-83
2023/05/15 04:28:56;;;;;;;5.90;5.40;;;19.40;40.10;;;;;;5096279;28;20251;-83
2023/05/15 04:31:23;;;;;;;5.40;4.93;;;19.40;40.20;;;;;;5112251;28;20310;-83
2023/05/15 04:33:49;;;;;;;5.82;5.32;;;19.40;40.10;;;;;;5095772;28;20155;-82
2023/05/15 04:36:15;;;;;;;5.63;5.00;;;19.40;40.20;;;;;;5113192;28;20144;-83
2023/05/15 04:38:41;;;;;;;5.53;5.05;;;19.40;40.20;;;;;;5096535;28;20251;-84
2023/05/15 04:41:10;;;;;;;5.57;5.07;;;19.40;40.20;;;;;;5114199;28;20198;-83
2023/05/15 04:43:35;;;;;;;5.70;5.20;;;19.40;40.20;;;;;;5079564;28;20168;-83
2023/05/15 04:46:01;;;;;;;5.57;5.10;;;19.40;40.30;;;;;;5096005;28;20153;-83
2023/05/15 04:48:27;;;;;;;6.10;5.60;;;19.40;40.30;;;;;;5112563;28;20235;-83
2023/05/15 04:50:52;;;;;;;5.60;5.15;;;19.40;40.40;;;;;;5116317;28;20160;-83
2023/05/15 04:53:18;;;;;;;5.93;5.43;;;19.40;40.30;;;;;;5117621;28;20159;-82
2023/05/15 04:55:43;;;;;;;6.07;5.57;;;19.40;40.30;;;;;;5117636;28;20178;-83
2023/05/15 04:58:09;;;;;;;5.88;5.35;;;19.40;40.40;;;;;;5117838;28;20520;-83
2023/05/15 05:00:35;;;;;;;5.40;5.00;;;19.40;40.40;;;;;;5116636;28;20577;-82
2023/05/15 05:03:00;;;;;;;6.07;5.57;;;19.30;40.40;;;;;;5115762;28;20156;-83
2023/05/15 05:05:27;;;;;;;5.72;5.22;;;19.40;40.40;;;;;;5117118;28;20145;-83
2023/05/15 05:07:53;;;;;;;5.40;5.00;;;19.40;40.30;;;;;;5117448;28;20164;-83
2023/05/15 05:10:18;;;;;;;5.68;5.18;;;19.40;40.40;;;;;;5116227;28;20243;-84
2023/05/15 05:12:44;;;;;;;6.03;5.53;;;19.40;40.40;;;;;;5116097;28;20273;-82
2023/05/15 05:15:10;;;;;;;5.28;4.88;;;19.30;40.30;;;;;;5116108;28;20168;-83
2023/05/15 05:17:35;;;;;;;5.50;5.10;;;19.40;40.40;;;;;;5118428;27;20205;-83
2023/05/15 05:20:01;;;;;;;5.57;5.07;;;19.40;40.50;;;;;;5119121;27;20195;-83
2023/05/15 05:22:29;;;;;;;5.38;4.97;;;19.40;40.40;;;;;;5118840;27;20163;-82
2023/05/15 05:24:56;;;;;;;5.93;5.43;;;19.30;40.40;;;;;;5118980;27;20174;-82
2023/05/15 05:27:22;;;;;;;5.82;5.32;;;19.30;40.40;;;;;;5119005;27;20204;-84
2023/05/15 05:29:47;;;;;;;6.05;5.45;;;19.30;40.40;;;;;;5118734;27;20144;-83
2023/05/15 05:32:13;;;;;;;5.45;5.03;;;19.30;40.30;;;;;;5136923;27;20492;-83
2023/05/15 05:34:39;;;;;;;6.20;5.70;;;19.30;40.30;;;;;;5137570;27;20534;-83
2023/05/15 05:37:06;;;;;;;5.97;5.38;;;19.30;40.40;;;;;;5119809;27;20144;-83
2023/05/15 05:39:34;;;;;;;5.65;5.15;;;19.30;40.30;;;;;;5119454;27;20194;-83
2023/05/15 05:42:01;;;;;;;5.85;5.35;;;19.30;40.40;;;;;;5120208;27;20234;-82
2023/05/15 05:44:27;;;;;;;5.95;5.45;;;19.30;40.30;;;;;;5103212;27;20163;-82
2023/05/15 05:46:54;;;;;;;5.90;5.35;;;19.40;41.10;;;;;;5118831;27;20166;-82
2023/05/15 05:49:21;;;;;;;5.90;5.40;;;19.30;40.40;;;;;;5119794;27;20155;-82
2023/05/15 05:51:47;;;;;;;5.90;5.40;;;19.40;40.40;;;;;;5119353;27;20154;-83
2023/05/15 05:54:14;;;;;;;5.55;5.13;;;19.40;40.40;;;;;;5119537;27;20222;-83
2023/05/15 05:56:42;;;;;;;5.57;5.10;;;19.40;40.50;;;;;;5136782;27;20160;-83
2023/05/15 05:59:08;;;;;;;5.57;5.07;;;19.40;40.40;;;;;;5102055;27;20606;-83
2023/05/15 06:01:35;;;;;;;5.78;5.28;;;19.30;40.30;;;;;;5136323;27;20152;-83
2023/05/15 06:04:01;;;;;;;5.80;5.20;;;19.40;40.50;;;;;;5101926;27;20159;-83
2023/05/15 06:06:27;;;;;;;5.50;5.10;;;19.40;40.50;;;;;;5118388;27;20193;-84
2023/05/15 06:08:53;;;;;;;5.97;5.47;;;19.40;40.40;;;;;;5102084;27;20182;-84
2023/05/15 06:11:19;;;;;;;6.00;5.50;;;19.40;40.40;;;;;;5118646;27;20152;-84
2023/05/15 06:13:44;;;;;;;5.55;5.05;;;19.40;40.50;;;;;;5118897;27;20158;-84
2023/05/15 06:16:10;;;;;;;5.40;5.00;;;19.40;40.50;;;;;;5137018;27;20151;-84
2023/05/15 06:18:36;;;;;;;5.75;5.25;;;19.40;40.50;;;;;;5115583;28;20227;-83
2023/05/15 06:21:02;;;;;;;5.63;5.13;;;19.40;40.50;;;;;;5081175;28;20196;-82
2023/05/15 06:23:31;;;;;;;5.63;5.10;;;19.40;40.60;;;;;;5115304;28;20233;-83
2023/05/15 06:25:56;;;;;;;5.57;5.07;;;19.50;40.50;;;;;;5098236;28;20172;-82
2023/05/15 06:28:22;;;;;;;5.47;4.97;;;19.50;40.60;;;;;;5113738;28;20742;-82
2023/05/15 06:30:47;;;;;;;5.38;4.95;;;19.50;40.30;;;;;;5114945;28;20553;-82
2023/05/15 06:33:13;;;;;;;5.60;5.10;;;19.60;40.10;;;;;;5115015;28;20252;-83
2023/05/15 06:35:40;;;;;;;5.47;5.00;;;19.60;40.10;;;;;;5098003;28;20168;-83
2023/05/15 06:38:05;;;;;;;5.68;5.20;;;19.70;40.20;;;;;;5098493;28;20152;-82
2023/05/15 06:40:33;;;;;;;5.63;5.13;;;19.70;40.40;;;;;;5098981;28;20260;-83
2023/05/15 06:42:59;;;;;;;6.18;5.57;;;19.60;40.50;;;;;;5081394;28;20596;-82
2023/05/15 06:45:25;;;;;;;5.75;5.25;;;19.70;40.80;;;;;;5097292;28;20172;-81
2023/05/15 06:47:51;;;;;;;5.75;5.25;;;19.60;41.40;;;;;;5115262;28;20163;-82
2023/05/15 06:50:17;;;;;;;5.40;4.93;;;19.50;42.00;;;;;;5114801;28;20172;-81
2023/05/15 06:52:42;;;;;;;5.65;5.18;;;19.50;42.30;;;;;;5081618;28;20168;-82
2023/05/15 06:55:08;;;;;;;5.30;4.90;;;19.50;43.00;;;;;;5115654;28;20606;-80
2023/05/15 06:57:34;;;;;;;5.65;5.15;;;19.40;43.30;;;;;;5097555;28;20192;-81
2023/05/15 07:00:00;;;;;;;5.63;5.13;;;19.40;43.70;;;;;;5116697;28;20191;-82
2023/05/15 07:02:26;;;;;;;5.60;5.10;;;19.50;44.00;;;;;;5115123;28;20607;-81
2023/05/15 07:04:52;;;;;;;5.38;4.97;;;19.40;43.90;;;;;;5098693;28;20160;-81
2023/05/15 07:07:18;;;;;;;5.28;4.88;;;19.50;44.20;;;;;;5115626;28;20224;-83
2023/05/15 07:09:47;;;;;;;5.47;5.00;;;19.50;44.20;;;;;;5098435;28;20203;-81
2023/05/15 07:12:15;;;;;;;5.28;4.88;;;19.40;44.40;;;;;;5119669;28;20180;-81
2023/05/15 07:14:41;;;;;;;5.80;5.30;;;19.50;45.10;;;;;;5083283;28;20201;-82
2023/05/15 07:17:07;;;;;;;5.22;4.82;;;19.50;45.50;;;;;;5117176;28;20179;-81
2023/05/15 07:19:32;;;;;;;5.10;4.70;;;19.40;46.20;;;;;;5137154;27;20233;-82
2023/05/15 07:21:58;;;;;;;5.07;4.68;;;19.40;46.40;;;;;;5118746;28;20166;-81
2023/05/15 07:24:24;;;;;;;5.03;4.63;;;19.40;46.50;;;;;;5118787;27;20561;-82
2023/05/15 07:26:49;;;;;;;4.65;4.30;;;19.60;46.70;;;;;;5101919;27;20234;-82
2023/05/15 07:29:18;;;;;;;5.13;4.63;;;19.60;46.20;;;;;;5101419;27;20254;-81
2023/05/15 07:31:46;;;;;;;4.90;4.50;;;19.60;46.20;;;;;;5118214;27;20148;-82
2023/05/15 07:34:12;;;;;;;4.82;4.43;;;19.60;46.20;;;;;;5101293;28;20198;-82
2023/05/15 07:36:47;;;;;;;5.18;4.78;;;19.50;46.30;;;;;;5076221;28;20199;-82
2023/05/15 07:39:15;;;;;;;5.25;4.82;;;19.60;46.50;;;;;;5060926;28;20689;-81
2023/05/15 07:41:41;;;;;;;5.10;4.70;;;19.60;46.50;;;;;;5075341;28;20716;-81
2023/05/15 07:44:07;;;;;;;5.00;4.60;;;19.50;46.60;;;;;;5092382;28;20153;-82
2023/05/15 07:46:33;;;;;;;5.20;4.70;;;19.50;46.70;;;;;;5075283;28;20271;-81
2023/05/15 07:48:59;;;;;;;5.30;4.80;;;19.60;46.90;;;;;;5074811;28;20169;-81
2023/05/15 07:51:25;;;;;;;5.20;4.72;;;19.60;47.10;;;;;;5058528;28;20276;-81
2023/05/15 07:53:50;;;;;;;5.10;4.70;;;19.60;48.00;;;;;;5059182;28;20169;-81
2023/05/15 07:56:16;;;;;;;5.70;5.20;;;19.70;47.50;;;;;;5060142;28;20204;-83
2023/05/15 07:58:43;;;;;;;5.32;4.90;;;19.70;47.30;;;;;;5077321;28;20251;-83
2023/05/15 08:01:08;;;;;;;5.53;4.97;;;19.70;47.80;;;;;;5059648;28;20710;-83
2023/05/15 08:03:37;;;;;;;5.25;4.85;;;19.70;47.90;;;;;;5094368;28;20160;-81
2023/05/15 08:06:03;;;;;;;5.50;5.00;;;19.70;47.80;;;;;;5045615;28;20204;-82
2023/05/15 08:08:30;;;;;;;5.40;4.90;;;19.70;47.90;;;;;;5110418;28;20224;-82
2023/05/15 08:10:56;;;;;;;5.63;5.13;;;19.70;48.00;;;;;;5117498;28;20682;-82
2023/05/15 08:13:21;;;;;;;5.20;4.70;;;19.70;48.60;;;;;;5105293;28;20160;-82
2023/05/15 08:15:47;;;;;;;5.15;4.68;;;19.70;48.60;;;;;;5123136;28;20159;-82
2023/05/15 08:18:12;;;;;;;5.07;4.68;;;19.80;49.10;;;;;;5102622;28;20224;-83
2023/05/15 08:20:38;;;;;;;5.68;4.82;;;19.90;48.60;;;;;;5103503;28;20199;-82
2023/05/15 08:23:04;;;;;;;7.20;4.60;;;19.90;48.90;;;;;;5120151;28;20148;-81
2023/05/15 08:25:30;;;;;;;5.93;4.65;;;20.00;48.60;;;;;;5121641;28;20174;-82
2023/05/15 08:27:56;;;;;;;5.07;4.68;;;19.90;48.50;;;;;;5121911;28;20153;-82
2023/05/15 08:30:22;;;;;;;6.93;5.10;;;19.90;48.70;;;;;;5088963;28;20633;-82
2023/05/15 08:32:49;;;;;;;5.15;4.75;;;19.90;48.70;;;;;;5123394;28;20155;-81
2023/05/15 08:35:16;;;;;;;5.85;4.97;;;19.90;48.90;;;;;;5107131;28;20255;-81
2023/05/15 08:37:41;;;;;;;6.35;5.43;;;19.90;48.90;;;;;;5122447;28;20157;-82
2023/05/15 08:40:09;;;;;;;5.85;5.30;;;19.90;49.00;;;;;;5106997;28;20196;-82
2023/05/15 08:42:44;;;;;;;6.65;4.82;;;19.90;48.90;;;;;;5124467;28;20193;-81
2023/05/15 08:45:12;;;;;;;5.45;4.95;;;19.90;49.20;;;;;;5106016;28;20708;-82
2023/05/15 08:47:39;;;;;;;5.38;4.88;;;19.90;49.20;;;;;;5125570;28;20479;-82
2023/05/15 08:50:10;;;;;;;5.28;4.88;;;20.00;49.20;;;;;;5107121;28;20180;-82
2023/05/15 08:52:37;;;;;;;7.18;5.18;;;19.90;49.20;;;;;;5107321;28;20184;-82
2023/05/15 08:55:05;;;;;;;8.68;5.55;;;19.90;49.20;;;;;;5107022;28;20235;-81
2023/05/15 08:57:48;;;;;;;6.00;5.00;;;19.90;49.40;;;;;;5090054;28;20158;-82
2023/05/15 09:00:14;;;;;;;7.05;5.30;;;19.90;49.50;;;;;;5124441;28;20191;-81
2023/05/15 09:02:41;;;;;;;5.78;5.28;;;19.90;49.40;;;;;;5088856;28;20156;-82
2023/05/15 09:05:08;;;;;;;5.85;5.22;;;20.00;49.40;;;;;;5089404;28;20159;-82
2023/05/15 09:07:34;;;;;;;5.97;5.47;;;20.00;49.30;;;;;;5105295;28;20163;-83
2023/05/15 09:10:01;;;;;;;5.90;5.22;;;20.00;49.20;;;;;;5123066;28;20160;-82
2023/05/15 09:12:28;;;;;;;5.93;5.43;;;20.00;49.30;;;;;;5104562;28;20149;-83
2023/05/15 09:15:11;;;;;;;5.53;5.13;;;20.00;49.20;;;;;;5105380;28;20159;-82
2023/05/15 09:17:41;;;;;;;6.00;5.50;;;20.00;49.20;;;;;;5105462;27;20575;-82
2023/05/15 09:20:29;;;;;;;8.25;5.88;;;20.00;49.10;;;;;;5122530;27;20572;-82
2023/05/15 09:22:56;;;;;;;7.45;5.05;;;20.10;49.10;;;;;;5108064;27;20159;-82
2023/05/15 09:25:38;;;;;;;5.43;4.93;;;20.10;49.10;;;;;;5121527;27;20152;-82
2023/05/15 09:35:33;;;;;;;5.90;5.40;;;20.20;48.90;;;;;;5075233;28;20201;-81
2023/05/15 09:37:59;;;;;;;5.43;4.93;;;20.20;49.10;;;;;;5058162;28;20162;-81
2023/05/15 09:40:27;;;;;;;6.00;5.40;;;20.20;49.30;;;;;;5058964;28;20193;-83
2023/05/15 09:42:53;;;;;;;6.35;5.03;;;20.20;49.20;;;;;;5024515;28;20181;-83
2023/05/15 09:45:19;;;;;;;5.22;4.72;;;20.20;49.10;;;;;;5056970;28;20164;-80
2023/05/15 09:47:45;;;;;;;5.68;5.10;;;20.20;48.90;;;;;;5056471;28;20154;-81
2023/05/15 09:50:11;;;;;;;5.82;5.22;;;20.30;48.70;;;;;;5056788;28;20617;-84
2023/05/15 09:52:37;;;;;;;5.57;5.07;;;20.30;48.70;;;;;;5041993;28;20161;-81
2023/05/15 09:55:05;;;;;;;5.63;5.13;;;20.20;48.70;;;;;;5073123;28;20177;-83
2023/05/15 09:57:30;;;;;;;6.15;5.45;;;20.30;48.80;;;;;;5054072;28;20577;-81
2023/05/15 10:00:00;;;;;;;5.90;5.22;;;20.20;48.80;;;;;;5034143;28;20196;-83
2023/05/15 10:02:30;;;;;;;5.63;5.13;;;20.20;48.90;;;;;;5025418;28;20250;-84
2023/05/15 10:04:57;;;;;;;5.50;5.03;;;20.10;48.90;;;;;;5042531;28;20617;-84
2023/05/15 10:07:30;;;;;;;5.68;5.18;;;20.20;48.70;;;;;;5056705;27;20171;-82
2023/05/15 10:09:56;;;;;;;5.50;5.00;;;20.30;48.70;;;;;;5101226;27;20621;-84
2023/05/15 10:12:22;;;;;;;5.70;5.20;;;20.20;48.60;;;;;;5118585;27;20167;-83
2023/05/15 10:14:48;;;;;;;5.40;4.90;;;20.20;48.70;;;;;;5119297;27;20216;-84
2023/05/15 10:17:14;;;;;;;5.65;4.95;;;20.10;48.70;;;;;;5138649;27;20155;-84
2023/05/15 10:19:40;;;;;;;5.10;4.60;;;20.20;48.70;;;;;;5120082;27;20219;-84
2023/05/15 10:22:06;;;;;;;5.57;5.07;;;20.20;48.70;;;;;;5104150;27;20160;-83
2023/05/15 10:24:32;;;;;;;5.93;5.43;;;20.20;48.60;;;;;;5100545;28;20178;-85
2023/05/15 10:26:58;;;;;;;5.40;4.95;;;20.20;48.60;;;;;;5082272;28;20610;-83
2023/05/15 10:29:25;;;;;;;5.68;5.18;;;20.30;48.50;;;;;;5117241;28;20160;-84
2023/05/15 10:31:51;;;;;;;5.57;5.07;;;20.30;48.50;;;;;;5115628;28;20282;-83
2023/05/15 10:34:17;;;;;;;5.65;5.15;;;20.20;48.40;;;;;;5080468;28;20642;-85
2023/05/15 10:36:42;;;;;;;5.30;4.80;;;20.30;48.40;;;;;;5097145;28;20180;-85
2023/05/15 10:39:08;;;;;;;5.53;4.65;;;20.30;48.30;;;;;;5115375;28;20231;-85
2023/05/15 10:41:37;;;;;;;5.35;4.95;;;20.30;48.10;;;;;;5097943;28;20248;-84
2023/05/15 10:44:03;;;;;;;5.75;5.25;;;20.40;48.20;;;;;;5080564;28;20174;-83
2023/05/15 10:46:29;;;;;;;5.18;4.78;;;20.30;48.20;;;;;;5080950;28;20164;-84
2023/05/15 10:48:55;;;;;;;5.63;5.00;;;20.30;48.10;;;;;;5097314;28;20144;-82
2023/05/15 10:51:28;;;;;;;4.90;4.50;;;20.40;48.10;;;;;;5115058;28;20252;-82
2023/05/15 10:53:55;;;;;;;4.82;4.43;;;20.30;48.00;;;;;;5097325;28;20160;-84
2023/05/15 10:56:28;;;;;;;5.43;4.93;;;20.40;48.00;;;;;;5096734;28;20152;-84
2023/05/15 10:58:54;;;;;;;4.85;4.45;;;20.40;48.00;;;;;;5080427;28;20576;-84
2023/05/15 11:01:36;;;;;;;5.80;4.32;;;20.40;48.00;;;;;;5096359;28;20642;-84
2023/05/15 11:04:11;;;;;;;5.30;4.80;;;20.40;48.10;;;;;;5079324;28;20606;-83
2023/05/15 11:06:39;;;;;;;5.10;4.70;;;20.40;48.10;;;;;;5079884;28;20191;-83
2023/05/15 11:09:35;;;;;;;5.20;4.70;;;20.40;48.00;;;;;;5096107;28;20523;-83
2023/05/15 11:12:01;;;;;;;5.55;5.05;;;20.40;48.30;;;;;;5096865;28;20152;-84
2023/05/15 11:14:30;;;;;;;5.10;4.60;;;20.40;48.20;;;;;;5114611;28;20598;-82
2023/05/15 11:16:57;;;;;;;5.20;4.80;;;20.50;48.00;;;;;;5079548;28;20213;-83
2023/05/15 11:19:36;;;;;;;5.45;4.95;;;20.40;48.00;;;;;;5095712;28;20223;-82
2023/05/15 11:22:17;;;;;;;5.50;5.00;;;20.40;48.10;;;;;;5114200;28;20156;-82
2023/05/15 11:24:49;;;;;;;4.95;4.55;;;20.40;48.10;;;;;;5096395;28;20160;-82
2023/05/15 11:27:20;;;;;;;5.60;5.10;;;20.40;48.20;;;;;;5096533;28;20180;-84
2023/05/15 11:30:13;;;;;;;5.07;4.68;;;20.30;48.20;;;;;;5096610;28;20149;-83
2023/05/15 11:32:48;;;;;;;5.35;4.82;;;20.30;48.30;;;;;;5096201;28;20208;-80
2023/05/15 11:35:20;;;;;;;4.88;4.40;;;20.30;48.30;;;;;;5096249;28;20167;-84
2023/05/15 11:37:55;;;;;;;5.43;4.93;;;20.40;48.40;;;;;;5096167;28;20188;-83
2023/05/15 11:40:26;;;;;;;5.18;4.68;;;20.30;48.40;;;;;;5096551;28;20198;-84
2023/05/15 11:43:00;;;;;;;5.50;5.00;;;20.30;48.40;;;;;;5095536;28;20170;-82
2023/05/15 11:45:28;;;;;;;5.35;4.85;;;20.30;48.60;;;;;;5095761;28;20163;-83
2023/05/15 11:47:54;;;;;;;5.57;5.07;;;20.30;48.50;;;;;;5096017;28;20190;-82
2023/05/15 11:50:20;;;;;;;4.93;4.53;;;20.30;48.50;;;;;;5096142;28;20618;-82
2023/05/15 11:52:47;;;;;;;7.22;5.20;;;20.40;48.40;;;;;;5079947;28;20160;-82
2023/05/15 11:55:14;;;;;;;6.07;4.80;;;20.40;48.30;;;;;;5079431;28;20172;-81
2023/05/15 11:57:40;;;;;;;5.32;4.75;;;20.30;48.50;;;;;;5113964;28;20607;-84
2023/05/15 12:00:08;;;;;;;7.72;5.05;;;20.30;48.60;;;;;;5099062;28;20195;-82
2023/05/15 12:02:34;;;;;;;4.95;4.53;;;20.20;48.60;;;;;;5120689;28;20148;-83
2023/05/15 12:05:00;;;;;;;4.32;3.97;;;20.20;48.70;;;;;;5104121;28;20156;-83
2023/05/15 12:07:25;;;;;;;5.95;4.88;;;20.20;48.80;;;;;;5102588;28;20163;-84
2023/05/15 12:09:51;;;;;;;5.60;5.10;;;20.20;48.80;;;;;;5101437;28;20160;-85
2023/05/15 12:12:17;;;;;;;4.70;4.30;;;20.10;48.90;;;;;;5099966;28;20183;-86
2023/05/15 12:14:42;;;;;;;5.60;5.07;;;20.10;48.90;;;;;;5082763;28;20533;-83
2023/05/15 12:17:08;;;;;;;5.05;4.55;;;20.10;48.90;;;;;;5118214;28;20160;-82
2023/05/15 12:19:36;;;;;;;4.63;4.22;;;20.10;48.70;;;;;;5078357;28;20719;-83
2023/05/15 12:22:29;;;;;;;5.63;4.40;;;20.10;48.70;;;;;;5077410;28;20604;-85
2023/05/15 12:25:34;;;;;;;4.57;4.18;;;20.20;48.60;;;;;;5018207;28;20178;-85
2023/05/15 12:28:01;;;;;;;5.43;4.93;;;20.20;48.10;;;;;;4998569;28;20234;-85
2023/05/15 12:30:27;;;;;;;4.80;4.40;;;20.20;48.00;;;;;;4998705;28;20283;-84
2023/05/15 12:32:52;;;;;;;4.97;4.47;;;20.30;47.60;;;;;;5017753;28;20215;-85
2023/05/15 12:35:18;;;;;;;5.05;4.65;;;20.30;47.60;;;;;;5003372;28;20172;-85
2023/05/15 12:37:44;;;;;;;5.00;4.60;;;20.20;47.70;;;;;;5002814;28;20221;-83
2023/05/15 12:40:10;;;;;;;4.60;4.20;;;20.30;47.20;;;;;;4987103;28;20234;-84
2023/05/15 12:42:40;;;;;;;4.95;4.47;;;20.40;47.20;;;;;;5003301;28;20180;-83
2023/05/15 12:45:12;;;;;;;5.40;4.90;;;20.30;47.10;;;;;;5002743;28;20204;-84
2023/05/15 12:47:37;;;;;;;4.90;4.50;;;20.30;47.30;;;;;;5002028;28;20598;-85
2023/05/15 12:50:12;;;;;;;4.50;4.10;;;20.30;47.00;;;;;;5048561;28;20182;-85
2023/05/15 12:52:37;;;;;;;6.05;4.60;;;20.30;46.90;;;;;;5022889;28;20165;-83
2023/05/15 12:55:03;;;;;;;4.70;4.15;;;20.30;46.80;;;;;;5022734;28;20170;-82
2023/05/15 12:57:29;;;;;;;4.70;4.30;;;20.30;47.00;;;;;;5039541;28;20727;-84
2023/05/15 12:59:54;;;;;;;5.10;4.60;;;20.30;46.90;;;;;;5073134;28;20613;-84